createdAt,value
2022-10-14T00:00:12.002Z,1009.236
2022-10-14T00:05:14.673Z,1009.296
2022-10-14T00:10:17.412Z,1009.207
2022-10-14T00:15:20.135Z,1009.154
2022-10-14T00:20:24.437Z,1009.079
2022-10-14T00:25:27.162Z,1009.112
2022-10-14T00:30:29.739Z,1009.112
2022-10-14T00:35:32.631Z,1009.067
2022-10-14T00:40:35.052Z,1009.024
2022-10-14T00:45:37.582Z,1009.049
2022-10-14T00:50:40.163Z,1009.085
2022-10-14T00:55:42.901Z,1009.108
2022-10-14T01:00:45.626Z,1009.044
2022-10-14T01:05:48.271Z,1009.028
2022-10-14T01:10:50.924Z,1009.002
2022-10-14T01:15:53.511Z,1008.97
2022-10-14T01:20:56.177Z,1008.984
2022-10-14T01:25:58.917Z,1008.991
2022-10-14T01:31:01.569Z,1008.981
2022-10-14T01:36:04.379Z,1008.843
2022-10-14T01:41:06.894Z,1008.877
2022-10-14T01:46:09.385Z,1008.849
2022-10-14T01:51:12.066Z,1008.848
2022-10-14T01:56:14.613Z,1008.869
2022-10-14T02:01:17.180Z,1008.833
2022-10-14T02:06:20.062Z,1008.775
2022-10-14T02:11:22.604Z,1008.82
2022-10-14T02:16:25.150Z,1008.855
2022-10-14T02:21:27.765Z,1008.894
2022-10-14T02:26:30.476Z,1008.921
2022-10-14T02:31:38.871Z,1008.944
2022-10-14T02:36:41.678Z,1008.941
2022-10-14T02:41:44.371Z,1008.946
2022-10-14T02:46:47.075Z,1008.943
2022-10-14T02:51:49.851Z,1008.953
2022-10-14T02:56:52.483Z,1008.87
2022-10-14T03:06:58.052Z,1008.668
2022-10-14T03:12:00.929Z,1008.617
2022-10-14T03:17:03.642Z,1008.563
2022-10-14T03:22:06.437Z,1008.508
2022-10-14T03:27:09.372Z,1008.49
2022-10-14T03:32:11.922Z,1008.402
2022-10-14T03:37:15.501Z,1008.438
2022-10-14T03:42:18.191Z,1008.488
2022-10-14T03:47:23.003Z,1008.591
2022-10-14T03:52:25.545Z,1008.508
2022-10-14T03:57:28.523Z,1008.505
2022-10-14T04:02:30.988Z,1008.563
2022-10-14T04:07:36.986Z,1008.522
2022-10-14T04:12:40.024Z,1008.512
2022-10-14T04:17:45.453Z,1008.417
2022-10-14T04:22:48.725Z,1008.384
2022-10-14T04:32:54.706Z,1008.261
2022-10-14T04:43:00.138Z,1008.259
2022-10-14T04:53:05.423Z,1008.257
2022-10-14T04:58:07.943Z,1008.194
2022-10-14T05:03:10.642Z,1008.184
2022-10-14T05:13:16.273Z,1008.251
2022-10-14T05:18:19.076Z,1008.204
2022-10-14T05:23:21.856Z,1008.209
2022-10-14T05:33:27.381Z,1008.119
2022-10-14T05:38:30.147Z,1008.109
2022-10-14T05:43:33.192Z,1008.074
2022-10-14T05:48:35.667Z,1008.065
2022-10-14T05:53:38.221Z,1008.066
2022-10-14T05:58:40.944Z,1008.122
2022-10-14T06:03:43.457Z,1008.094
2022-10-14T06:08:46.010Z,1008.081
2022-10-14T06:13:48.608Z,1008.123
2022-10-14T06:18:54.368Z,1008.097
2022-10-14T06:23:54.335Z,1008.088
2022-10-14T06:28:57.280Z,1008.074
2022-10-14T06:34:00.079Z,1008.072
2022-10-14T06:39:02.787Z,1008.009
2022-10-14T06:44:05.078Z,1008.106
2022-10-14T06:49:10.636Z,1008.146
2022-10-14T06:54:13.349Z,1008.168
2022-10-14T06:59:15.974Z,1008.232
2022-10-14T07:04:18.811Z,1008.257
2022-10-14T07:14:24.195Z,1008.317
2022-10-14T07:19:26.892Z,1008.286
2022-10-14T07:24:29.648Z,1008.32
2022-10-14T07:34:35.253Z,1008.455
2022-10-14T07:39:37.854Z,1008.404
2022-10-14T07:44:40.709Z,1008.426
2022-10-14T07:49:43.612Z,1008.405
2022-10-14T07:54:47.442Z,1008.372
2022-10-14T07:59:50.073Z,1008.305
2022-10-14T08:04:53.070Z,1008.292
2022-10-14T08:09:55.599Z,1008.388
2022-10-14T08:14:58.481Z,1008.331
2022-10-14T08:20:01.290Z,1008.381
2022-10-14T08:25:04.176Z,1008.235
2022-10-14T08:30:08.681Z,1008.205
2022-10-14T08:35:09.931Z,1008.152
2022-10-14T08:40:15.520Z,1008.069
2022-10-14T08:45:18.482Z,1008.052
2022-10-14T08:50:21.342Z,1008.024
2022-10-14T09:00:26.669Z,1008.091
2022-10-14T09:05:29.469Z,1008.128
2022-10-14T09:10:32.043Z,1008.073
2022-10-14T09:15:34.542Z,1008.046
2022-10-14T09:20:37.248Z,1008
2022-10-14T09:25:39.958Z,1007.937
2022-10-14T09:30:42.718Z,1007.984
2022-10-14T09:35:45.599Z,1007.879
2022-10-14T09:40:48.018Z,1007.95
2022-10-14T09:45:50.708Z,1007.88
2022-10-14T09:50:53.395Z,1007.829
2022-10-14T09:55:56.033Z,1007.767
2022-10-14T10:00:58.648Z,1007.768
2022-10-14T10:06:01.425Z,1007.691
2022-10-14T10:11:06.401Z,1007.689
2022-10-14T10:16:06.751Z,1007.686
2022-10-14T10:21:09.380Z,1007.679
2022-10-14T10:26:11.977Z,1007.651
2022-10-14T10:31:14.642Z,1007.601
2022-10-14T10:36:17.211Z,1007.581
2022-10-14T10:41:19.824Z,1007.704
2022-10-14T10:46:22.373Z,1007.648
2022-10-14T10:51:25.421Z,1007.615
2022-10-14T10:56:27.968Z,1007.564
2022-10-14T11:01:30.602Z,1007.569
2022-10-14T11:06:33.070Z,1007.489
2022-10-14T11:11:35.810Z,1007.471
2022-10-14T11:16:38.590Z,1007.501
2022-10-14T11:21:41.292Z,1007.423
2022-10-14T11:26:43.857Z,1007.366
2022-10-14T11:31:46.885Z,1007.271
2022-10-14T11:36:49.789Z,1007.187
2022-10-14T11:41:52.409Z,1007.078
2022-10-14T11:46:54.918Z,1007.121
2022-10-14T11:51:57.931Z,1007.014
2022-10-14T11:57:00.542Z,1007.018
2022-10-14T12:02:03.141Z,1006.977
2022-10-14T12:07:05.942Z,1006.929
2022-10-14T12:12:08.853Z,1006.926
2022-10-14T12:17:12.548Z,1006.867
2022-10-14T12:22:14.465Z,1006.885
2022-10-14T12:27:17.062Z,1006.855
2022-10-14T12:32:21.097Z,1006.82
2022-10-14T12:37:25.761Z,1006.663
2022-10-14T12:42:26.296Z,1006.609
2022-10-14T12:47:29.878Z,1006.589
2022-10-14T12:52:32.896Z,1006.542
2022-10-14T12:57:37.294Z,1006.391
2022-10-14T13:02:42.246Z,1006.412
2022-10-14T13:07:46.106Z,1006.292
2022-10-14T13:12:48.004Z,1006.304
2022-10-14T13:17:50.985Z,1006.315
2022-10-14T13:22:54.541Z,1006.256
2022-10-14T13:27:57.759Z,1006.255
2022-10-14T13:33:01.402Z,1006.214
2022-10-14T13:38:04.155Z,1006.168
2022-10-14T13:43:06.916Z,1006.19
2022-10-14T13:48:09.623Z,1006.167
2022-10-14T13:53:12.183Z,1006.176
2022-10-14T13:58:15.064Z,1006.17
2022-10-14T14:03:17.670Z,1006.133
2022-10-14T14:08:37.161Z,1006.126
2022-10-14T14:13:22.822Z,1006.177
2022-10-14T14:18:27.935Z,1006.183
2022-10-14T14:23:28.419Z,1006.149
2022-10-14T14:28:30.914Z,1006.118
2022-10-14T14:33:33.650Z,1006.066
2022-10-14T14:38:36.402Z,1006.033
2022-10-14T14:43:43.414Z,1005.969
2022-10-14T14:48:41.893Z,1005.922
2022-10-14T14:53:44.569Z,1005.836
2022-10-14T14:58:47.271Z,1005.786
2022-10-14T15:04:11.824Z,1005.746
2022-10-14T15:08:52.663Z,1005.713
2022-10-14T15:13:55.268Z,1005.607
2022-10-14T15:18:58.142Z,1005.53
2022-10-14T15:24:00.843Z,1005.525
2022-10-14T15:29:03.341Z,1005.487
2022-10-14T15:34:05.815Z,1005.413
2022-10-14T15:39:08.628Z,1005.389
2022-10-14T15:44:11.508Z,1005.3
2022-10-14T15:49:14.143Z,1005.29
2022-10-14T15:54:16.913Z,1005.275
2022-10-14T15:59:19.512Z,1005.319
2022-10-14T16:04:22.270Z,1005.324
2022-10-14T16:09:25.119Z,1005.368
2022-10-14T16:14:27.780Z,1005.387
2022-10-14T16:19:30.335Z,1005.327
2022-10-14T16:24:33.017Z,1005.207
2022-10-14T16:29:35.742Z,1005.22
2022-10-14T16:34:38.432Z,1005.251
2022-10-14T16:39:41.161Z,1005.237
2022-10-14T16:44:44.000Z,1005.19
2022-10-14T16:49:46.624Z,1005.19
2022-10-14T16:54:49.339Z,1005.113
2022-10-14T16:59:52.073Z,1005.064
2022-10-14T17:04:55.106Z,1005.038
2022-10-14T17:09:57.847Z,1005.054
2022-10-14T17:15:00.398Z,1005.096
2022-10-14T17:20:03.322Z,1005.153
2022-10-14T17:25:06.043Z,1005.095
2022-10-14T17:30:08.799Z,1004.994
2022-10-14T17:35:14.263Z,1004.986
2022-10-14T17:40:14.202Z,1004.953
2022-10-14T17:45:16.901Z,1005.02
2022-10-14T17:50:19.299Z,1005.042
2022-10-14T17:55:21.908Z,1005.065
2022-10-14T18:00:24.479Z,1004.995
2022-10-14T18:05:27.065Z,1004.993
2022-10-14T18:10:29.813Z,1004.848
2022-10-14T18:15:32.568Z,1004.744
2022-10-14T18:20:35.189Z,1004.725
2022-10-14T18:25:37.916Z,1004.66
2022-10-14T18:30:40.646Z,1004.713
2022-10-14T18:40:45.889Z,1004.626
2022-10-14T18:45:48.478Z,1004.607
2022-10-14T18:50:51.050Z,1004.583
2022-10-14T18:55:55.717Z,1004.576
2022-10-14T19:00:56.184Z,1004.482
2022-10-14T19:05:58.876Z,1004.519
2022-10-14T19:21:06.944Z,1004.442
2022-10-14T19:26:09.853Z,1004.323
2022-10-14T19:31:12.581Z,1004.249
2022-10-14T19:36:15.363Z,1004.204
2022-10-14T19:41:17.638Z,1004.078
2022-10-14T19:46:20.493Z,1004.047
2022-10-14T19:51:23.250Z,1004.07
2022-10-14T19:56:26.033Z,1003.941
2022-10-14T20:01:28.740Z,1003.883
2022-10-14T20:06:31.492Z,1003.898
2022-10-14T20:11:34.231Z,1003.864
2022-10-14T20:16:36.826Z,1003.741
2022-10-14T20:21:39.752Z,1003.703
2022-10-14T20:26:42.499Z,1003.665
2022-10-14T20:31:45.356Z,1003.673
2022-10-14T20:36:48.093Z,1003.724
2022-10-14T20:41:50.915Z,1003.743
2022-10-14T20:46:53.804Z,1003.731
2022-10-14T20:51:56.561Z,1003.614
2022-10-14T20:56:59.288Z,1003.558
2022-10-14T21:02:02.339Z,1003.485
2022-10-14T21:07:05.047Z,1003.344
2022-10-14T21:12:08.000Z,1003.308
2022-10-14T21:17:10.559Z,1003.161
2022-10-14T21:22:13.283Z,1003.06
2022-10-14T21:32:19.135Z,1003.003
2022-10-14T21:37:21.810Z,1003.011
2022-10-14T21:42:24.716Z,1002.948
2022-10-14T21:47:27.435Z,1002.93
2022-10-14T21:52:30.164Z,1002.873
2022-10-14T21:57:32.804Z,1002.855
2022-10-14T22:02:35.526Z,1002.786
2022-10-14T22:07:38.248Z,1002.637
2022-10-14T22:12:40.742Z,1002.548
2022-10-14T22:17:43.529Z,1002.449
2022-10-14T22:22:49.365Z,1002.325
2022-10-14T22:27:52.172Z,1002.274
2022-10-14T22:32:54.895Z,1002.225
2022-10-14T22:37:57.569Z,1002.19
2022-10-14T22:43:00.269Z,1002.202
2022-10-14T22:48:02.767Z,1002.107
2022-10-14T22:53:05.461Z,1002.082
2022-10-14T22:58:07.985Z,1002.049
2022-10-14T23:08:13.479Z,1002.018
2022-10-14T23:13:16.148Z,1001.982
2022-10-14T23:18:19.076Z,1001.925
2022-10-14T23:23:21.781Z,1001.899
2022-10-14T23:28:24.484Z,1001.949
2022-10-14T23:33:27.260Z,1001.907
2022-10-14T23:38:29.963Z,1001.909
2022-10-14T23:43:32.417Z,1001.786
2022-10-14T23:48:35.149Z,1001.874
2022-10-14T23:53:37.962Z,1001.798
